Time;durP1;ratioP1;P1;durP2;ratioP2;P2;SDS_P1;SDS_P2;PMS_P1;PMS_P2;Temp;Humidity;BMP_temperature;BMP_pressure;BME280_temperature;BME280_humidity;BME280_pressure;Samples;Min_cycle;Max_cycle;Signal;HPM_P1;HPM_P2
2023/04/02 00:01:19;;;;;;;2.33;1.60;;;;;;;;;;5006909;28;20212;-52
2023/04/02 00:03:52;;;;;;;4.25;2.30;;;;;;;;;;4997949;28;20538;-54
2023/04/02 00:06:31;;;;;;;2.38;1.85;;;;;;;;;;5015091;28;20255;-53
2023/04/02 00:09:19;;;;;;;2.75;1.50;;;;;;;;;;5015022;28;20240;-53
2023/04/02 00:11:48;;;;;;;1.63;1.17;;;;;;;;;;4997934;28;20248;-50
2023/04/02 00:14:26;;;;;;;1.30;1.20;;;;;;;;;;4997731;28;20197;-51
2023/04/02 00:16:54;;;;;;;1.08;0.98;;;;;;;;;;5014233;28;20229;-52
2023/04/02 00:19:40;;;;;;;1.67;1.30;;;;;;;;;;5015066;28;20201;-55
2023/04/02 00:22:14;;;;;;;1.23;0.82;;;;;;;;;;4997458;28;20294;-52
2023/04/02 00:24:41;;;;;;;1.55;1.20;;;;;;;;;;4997517;28;20201;-54
2023/04/02 00:27:13;;;;;;;2.08;1.00;;;;;;;;;;5014967;28;20220;-54
2023/04/02 00:29:56;;;;;;;1.20;1.00;;;;;;;;;;5014694;28;20209;-51
2023/04/02 00:32:27;;;;;;;1.25;1.00;;;;;;;;;;4997733;28;20193;-53
2023/04/02 00:34:54;;;;;;;1.75;1.00;;;;;;;;;;4997171;28;20651;-54
2023/04/02 00:37:37;;;;;;;2.22;1.20;;;;;;;;;;5014917;28;20657;-52
2023/04/02 00:40:14;;;;;;;1.20;1.10;;;;;;;;;;5014558;28;20205;-51
2023/04/02 00:42:41;;;;;;;1.10;0.93;;;;;;;;;;5014376;28;20208;-52
2023/04/02 00:45:29;;;;;;;1.23;0.95;;;;;;;;;;4997183;28;20208;-53
2023/04/02 00:47:58;;;;;;;1.33;1.00;;;;;;;;;;5029509;28;20201;-53
2023/04/02 00:50:31;;;;;;;1.58;1.10;;;;;;;;;;4997249;28;20252;-51
2023/04/02 00:52:59;;;;;;;1.25;1.08;;;;;;;;;;5029320;28;20659;-52
2023/04/02 00:55:34;;;;;;;1.00;0.80;;;;;;;;;;5029168;28;20632;-53
2023/04/02 00:58:02;;;;;;;1.27;1.05;;;;;;;;;;4997243;28;20204;-52
2023/04/02 01:00:32;;;;;;;1.08;0.98;;;;;;;;;;4980809;28;20213;-51
2023/04/02 01:03:27;;;;;;;1.25;1.15;;;;;;;;;;4996745;28;20205;-50
2023/04/02 01:06:00;;;;;;;1.60;0.95;;;;;;;;;;5014213;28;20296;-54
2023/04/02 01:08:40;;;;;;;0.98;0.85;;;;;;;;;;4996659;28;20255;-51
2023/04/02 01:11:10;;;;;;;0.63;0.57;;;;;;;;;;5014255;28;20212;-51
2023/04/02 01:13:49;;;;;;;1.10;0.90;;;;;;;;;;5014134;28;20192;-53
2023/04/02 01:16:19;;;;;;;0.77;0.75;;;;;;;;;;4996510;28;20740;-51
2023/04/02 01:19:07;;;;;;;1.10;1.00;;;;;;;;;;5012770;28;20244;-51
2023/04/02 01:21:40;;;;;;;1.23;1.00;;;;;;;;;;5012578;28;20568;-51
2023/04/02 01:24:10;;;;;;;0.95;0.73;;;;;;;;;;4997450;28;20193;-54
2023/04/02 01:26:51;;;;;;;0.90;0.73;;;;;;;;;;4996416;28;20209;-51
2023/04/02 01:29:26;;;;;;;1.00;0.80;;;;;;;;;;4996816;28;20201;-53
2023/04/02 01:31:57;;;;;;;1.17;0.90;;;;;;;;;;5013921;28;20201;-51
2023/04/02 01:34:26;;;;;;;1.00;0.70;;;;;;;;;;5013901;28;20580;-53
2023/04/02 01:37:00;;;;;;;1.27;0.82;;;;;;;;;;4996476;28;20225;-52
2023/04/02 01:39:28;;;;;;;1.38;0.90;;;;;;;;;;5013644;28;20197;-51
2023/04/02 01:42:16;;;;;;;0.73;0.73;;;;;;;;;;5012575;28;20197;-51
2023/04/02 01:45:02;;;;;;;0.73;0.60;;;;;;;;;;4996464;28;20237;-51
2023/04/02 01:47:29;;;;;;;1.15;0.77;;;;;;;;;;5012432;28;20292;-53
2023/04/02 01:50:01;;;;;;;0.82;0.75;;;;;;;;;;5012605;28;20216;-54
2023/04/02 01:52:39;;;;;;;0.75;0.75;;;;;;;;;;4996284;28;20263;-52
2023/04/02 01:55:09;;;;;;;0.93;0.90;;;;;;;;;;5012604;28;20197;-51
2023/04/02 01:57:36;;;;;;;0.60;0.50;;;;;;;;;;4996116;28;20312;-52
2023/04/02 02:00:11;;;;;;;0.93;0.75;;;;;;;;;;4980304;28;20297;-50
2023/04/02 02:02:39;;;;;;;0.77;0.77;;;;;;;;;;5028145;28;20291;-52
2023/04/02 02:05:15;;;;;;;0.63;0.63;;;;;;;;;;4996512;28;20288;-51
2023/04/02 02:07:45;;;;;;;0.73;0.73;;;;;;;;;;5028399;28;20197;-51
2023/04/02 02:10:27;;;;;;;0.80;0.70;;;;;;;;;;5028278;28;20220;-52
2023/04/02 02:12:59;;;;;;;1.20;0.90;;;;;;;;;;5012747;28;20205;-51
2023/04/02 02:15:30;;;;;;;0.63;0.63;;;;;;;;;;5012397;28;20526;-53
2023/04/02 02:18:00;;;;;;;0.60;0.50;;;;;;;;;;4996045;28;20710;-57
2023/04/02 02:20:31;;;;;;;1.20;0.73;;;;;;;;;;5013220;28;20201;-51
2023/04/02 02:22:59;;;;;;;0.93;0.87;;;;;;;;;;5028521;28;20201;-53
2023/04/02 02:25:30;;;;;;;1.00;0.73;;;;;;;;;;4995938;28;20201;-55
2023/04/02 02:28:17;;;;;;;0.90;0.80;;;;;;;;;;4996155;28;20255;-54
2023/04/02 02:30:48;;;;;;;1.17;0.90;;;;;;;;;;4996147;28;20193;-55
2023/04/02 02:33:27;;;;;;;1.33;0.90;;;;;;;;;;5012124;28;20198;-55
2023/04/02 02:36:12;;;;;;;1.40;0.90;;;;;;;;;;4996589;28;20229;-51
2023/04/02 02:38:52;;;;;;;1.58;1.23;;;;;;;;;;5012411;28;20197;-51
2023/04/02 02:42:10;;;;;;;1.13;1.02;;;;;;;;;;5002430;28;20243;-51
2023/04/02 02:44:42;;;;;;;1.60;1.27;;;;;;;;;;5031872;28;20205;-51
2023/04/02 02:47:31;;;;;;;0.90;0.80;;;;;;;;;;5015336;28;20638;-52
2023/04/02 02:50:03;;;;;;;1.38;1.08;;;;;;;;;;5015140;28;20213;-52
2023/04/02 02:52:34;;;;;;;1.33;1.13;;;;;;;;;;4999475;28;20217;-53
2023/04/02 02:55:18;;;;;;;1.50;1.20;;;;;;;;;;5031813;28;20681;-51
2023/04/02 02:57:57;;;;;;;1.57;1.17;;;;;;;;;;4999872;28;20237;-52
2023/04/02 03:00:28;;;;;;;1.50;1.20;;;;;;;;;;5015257;28;20284;-53
2023/04/02 03:02:58;;;;;;;1.10;1.00;;;;;;;;;;5031842;28;20209;-50
2023/04/02 03:05:29;;;;;;;1.63;1.30;;;;;;;;;;5015291;28;20749;-51
2023/04/02 03:08:04;;;;;;;1.60;1.30;;;;;;;;;;5015146;28;20210;-51
2023/04/02 03:11:00;;;;;;;1.63;1.33;;;;;;;;;;4999087;28;20260;-51
2023/04/02 03:13:32;;;;;;;1.63;1.27;;;;;;;;;;4998764;28;20201;-54
2023/04/02 03:16:22;;;;;;;1.38;1.27;;;;;;;;;;4998789;28;20217;-50
2023/04/02 03:19:01;;;;;;;1.90;1.30;;;;;;;;;;4998686;28;20308;-50
2023/04/02 03:21:38;;;;;;;1.47;1.37;;;;;;;;;;5016468;28;20205;-52
2023/04/02 03:24:11;;;;;;;1.53;1.30;;;;;;;;;;5015023;28;20255;-51
2023/04/02 03:26:41;;;;;;;1.13;1.03;;;;;;;;;;4998565;28;20213;-50
2023/04/02 03:29:25;;;;;;;1.83;1.20;;;;;;;;;;4998683;28;20244;-50
2023/04/02 03:31:56;;;;;;;2.10;1.60;;;;;;;;;;5014898;28;20259;-54
2023/04/02 03:34:28;;;;;;;2.70;1.43;;;;;;;;;;4998579;28;20536;-52
2023/04/02 03:37:11;;;;;;;2.10;1.37;;;;;;;;;;4998464;28;20271;-51
2023/04/02 03:39:51;;;;;;;1.30;1.20;;;;;;;;;;5014380;28;20646;-51
2023/04/02 03:42:29;;;;;;;2.10;1.43;;;;;;;;;;5030395;28;20201;-53
2023/04/02 03:45:23;;;;;;;2.00;1.80;;;;;;;;;;4998662;28;20197;-54
2023/04/02 03:48:00;;;;;;;3.43;1.80;;;;;;;;;;5005030;28;20259;-52
2023/04/02 03:50:46;;;;;;;3.40;2.30;;;;;;;;;;5014279;28;20196;-51
2023/04/02 03:53:14;;;;;;;2.67;1.73;;;;;;;;;;5012902;28;20190;-51
2023/04/02 03:55:41;;;;;;;3.13;2.27;;;;;;;;;;5014305;28;20205;-55
2023/04/02 03:58:22;;;;;;;2.17;1.80;;;;;;;;;;5030441;28;20270;-53
2023/04/02 04:00:58;;;;;;;2.57;2.00;;;;;;;;;;5056800;28;20268;-51
2023/04/02 04:03:54;;;;;;;3.30;2.07;;;;;;;;;;5030113;28;20192;-54
2023/04/02 04:06:30;;;;;;;2.77;2.13;;;;;;;;;;5031990;28;20209;-52
2023/04/02 04:08:58;;;;;;;3.53;2.53;;;;;;;;;;5015278;28;20200;-54
2023/04/02 04:11:38;;;;;;;3.47;2.40;;;;;;;;;;5029515;28;20212;-55
2023/04/02 04:14:25;;;;;;;3.33;2.50;;;;;;;;;;4996277;28;20189;-55
2023/04/02 04:17:04;;;;;;;3.73;2.47;;;;;;;;;;5047193;28;20208;-51
2023/04/02 04:19:45;;;;;;;4.90;2.80;;;;;;;;;;5047093;28;20572;-51
2023/04/02 04:22:17;;;;;;;4.90;3.00;;;;;;;;;;5030082;28;20244;-55
2023/04/02 04:24:48;;;;;;;4.87;3.20;;;;;;;;;;5013209;28;20196;-54
2023/04/02 04:27:32;;;;;;;2.83;2.20;;;;;;;;;;5015149;28;20208;-59
2023/04/02 04:30:23;;;;;;;4.40;2.77;;;;;;;;;;5029882;28;20197;-55
2023/04/02 04:33:02;;;;;;;4.37;2.90;;;;;;;;;;5047642;28;20208;-53
2023/04/02 04:35:33;;;;;;;3.93;2.60;;;;;;;;;;5031030;28;20328;-54
2023/04/02 04:38:20;;;;;;;3.43;2.57;;;;;;;;;;5014526;28;20220;-53
2023/04/02 04:40:53;;;;;;;4.00;2.87;;;;;;;;;;5032131;28;20192;-55
2023/04/02 04:43:46;;;;;;;5.30;2.97;;;;;;;;;;5015214;28;20195;-53
2023/04/02 04:46:37;;;;;;;5.47;3.00;;;;;;;;;;5029107;28;20208;-54
2023/04/02 04:49:14;;;;;;;3.70;2.60;;;;;;;;;;5030449;28;20200;-54
2023/04/02 04:51:54;;;;;;;4.33;2.97;;;;;;;;;;5015650;28;20247;-55
2023/04/02 04:54:27;;;;;;;5.63;3.10;;;;;;;;;;5031038;28;20180;-56
2023/04/02 04:57:01;;;;;;;4.47;3.20;;;;;;;;;;5028141;28;20713;-56
2023/04/02 04:59:43;;;;;;;4.40;3.10;;;;;;;;;;5014194;28;20433;-58
2023/04/02 05:02:12;;;;;;;4.60;3.30;;;;;;;;;;4998427;28;20199;-58
2023/04/02 05:04:42;;;;;;;8.53;4.07;;;;;;;;;;5031879;28;20677;-59
2023/04/02 05:07:31;;;;;;;6.20;3.20;;;;;;;;;;5028593;28;20224;-57
2023/04/02 05:10:14;;;;;;;5.13;3.57;;;;;;;;;;5011046;28;20196;-55
2023/04/02 05:12:55;;;;;;;5.40;3.50;;;;;;;;;;5013981;28;20603;-54
2023/04/02 05:15:38;;;;;;;6.30;3.10;;;;;;;;;;5047009;28;20185;-53
2023/04/02 05:18:18;;;;;;;5.17;3.20;;;;;;;;;;5030414;28;20251;-56
2023/04/02 05:20:59;;;;;;;7.00;4.10;;;;;;;;;;5013879;28;20216;-57
2023/04/02 05:23:30;;;;;;;6.70;3.33;;;;;;;;;;5031772;28;20200;-56
2023/04/02 05:25:58;;;;;;;6.27;3.73;;;;;;;;;;4993164;28;20569;-55
2023/04/02 05:28:37;;;;;;;6.67;3.73;;;;;;;;;;5004310;28;20251;-51
2023/04/02 05:31:27;;;;;;;7.03;3.92;;;;;;;;;;5004466;28;20240;-52
2023/04/02 05:33:55;;;;;;;6.67;3.77;;;;;;;;;;5036779;28;20221;-52
2023/04/02 05:36:32;;;;;;;7.03;3.80;;;;;;;;;;4998423;28;20632;-52
2023/04/02 05:39:00;;;;;;;5.57;3.50;;;;;;;;;;5018481;28;20256;-51
2023/04/02 05:41:43;;;;;;;5.50;3.97;;;;;;;;;;5015053;28;20243;-53
2023/04/02 05:44:20;;;;;;;8.40;4.13;;;;;;;;;;5022323;28;20708;-56
2023/04/02 05:46:56;;;;;;;8.27;4.53;;;;;;;;;;5043192;28;20229;-60
2023/04/02 05:49:31;;;;;;;5.77;4.00;;;;;;;;;;5030878;28;20230;-52
2023/04/02 05:52:01;;;;;;;8.47;4.10;;;;;;;;;;5015018;28;20224;-55
2023/04/02 05:54:50;;;;;;;7.53;3.63;;;;;;;;;;5030539;28;20221;-53
2023/04/02 05:57:22;;;;;;;4.00;2.87;;;;;;;;;;5015049;28;20237;-51
2023/04/02 06:00:20;;;;;;;6.07;3.43;;;;;;;;;;5014301;28;20311;-53
2023/04/02 06:02:58;;;;;;;7.60;3.53;;;;;;;;;;5010974;28;20213;-55
2023/04/02 06:05:38;;;;;;;6.97;4.00;;;;;;;;;;5002999;28;20692;-54
2023/04/02 06:08:10;;;;;;;5.87;3.87;;;;;;;;;;5011354;28;20701;-58
2023/04/02 06:10:46;;;;;;;7.30;4.10;;;;;;;;;;5009190;28;20717;-55
2023/04/02 06:13:17;;;;;;;6.10;4.07;;;;;;;;;;5032397;28;20232;-54
2023/04/02 06:15:44;;;;;;;7.00;4.03;;;;;;;;;;5016767;28;20224;-54
2023/04/02 06:18:23;;;;;;;7.43;4.13;;;;;;;;;;5018553;28;20240;-53
2023/04/02 06:20:51;;;;;;;4.93;3.33;;;;;;;;;;5002194;28;20255;-54
2023/04/02 06:23:29;;;;;;;6.27;3.77;;;;;;;;;;5035739;28;20225;-52
2023/04/02 06:26:25;;;;;;;6.20;4.10;;;;;;;;;;5002839;28;20220;-51
2023/04/02 06:29:01;;;;;;;5.80;3.97;;;;;;;;;;5028655;28;20221;-54
2023/04/02 06:31:37;;;;;;;6.77;4.07;;;;;;;;;;5016303;28;20231;-54
2023/04/02 06:34:14;;;;;;;5.50;3.60;;;;;;;;;;5031690;28;20283;-55
2023/04/02 06:36:49;;;;;;;6.37;3.47;;;;;;;;;;4998330;28;20264;-55
2023/04/02 06:39:23;;;;;;;5.87;3.53;;;;;;;;;;4986043;28;20270;-55
2023/04/02 06:41:57;;;;;;;4.97;3.20;;;;;;;;;;5034492;28;20634;-54
2023/04/02 06:44:49;;;;;;;6.57;3.27;;;;;;;;;;5014615;28;20228;-52
2023/04/02 06:47:43;;;;;;;6.80;3.40;;;;;;;;;;5031260;28;20358;-54
2023/04/02 06:50:50;;;;;;;7.33;3.47;;;;;;;;;;5014260;28;20697;-50
2023/04/02 06:53:32;;;;;;;5.70;3.23;;;;;;;;;;5014171;28;20598;-49
2023/04/02 06:56:27;;;;;;;6.23;3.90;;;;;;;;;;5014328;28;20572;-52
2023/04/02 06:58:54;;;;;;;6.13;3.30;;;;;;;;;;5019482;28;20232;-58
2023/04/02 07:01:27;;;;;;;7.47;3.47;;;;;;;;;;5016092;28;20290;-55
2023/04/02 07:03:55;;;;;;;5.53;2.80;;;;;;;;;;5033020;28;20288;-56
2023/04/02 07:06:28;;;;;;;7.37;3.03;;;;;;;;;;5000581;28;20747;-52
2023/04/02 07:08:58;;;;;;;4.97;2.90;;;;;;;;;;5015635;28;20216;-53
2023/04/02 07:11:26;;;;;;;3.57;2.20;;;;;;;;;;5050254;28;20290;-54
2023/04/02 07:13:57;;;;;;;5.07;2.93;;;;;;;;;;5033546;28;20217;-50
2023/04/02 07:16:26;;;;;;;4.40;2.97;;;;;;;;;;5016781;28;20710;-50
2023/04/02 07:18:54;;;;;;;5.50;3.07;;;;;;;;;;5032745;28;20240;-59
2023/04/02 07:21:25;;;;;;;5.00;3.03;;;;;;;;;;5013160;28;20219;-51
2023/04/02 07:23:53;;;;;;;5.17;3.37;;;;;;;;;;5015746;28;20685;-56
2023/04/02 07:26:24;;;;;;;4.13;3.07;;;;;;;;;;5034072;28;20716;-56
2023/04/02 07:28:51;;;;;;;4.03;2.40;;;;;;;;;;5034950;28;20229;-54
2023/04/02 07:31:37;;;;;;;4.33;2.83;;;;;;;;;;5016296;28;20220;-50
2023/04/02 07:34:04;;;;;;;5.00;2.67;;;;;;;;;;5034209;28;20223;-50
2023/04/02 07:36:32;;;;;;;3.60;2.23;;;;;;;;;;5034339;28;20209;-51
2023/04/02 07:39:00;;;;;;;5.87;3.00;;;;;;;;;;5034885;28;20231;-51
2023/04/02 07:41:28;;;;;;;3.87;2.40;;;;;;;;;;5035114;28;20796;-52
2023/04/02 07:43:55;;;;;;;4.93;2.70;;;;;;;;;;5035551;28;20201;-50
2023/04/02 07:46:23;;;;;;;3.10;2.43;;;;;;;;;;5035052;28;20219;-52
2023/04/02 07:48:50;;;;;;;4.13;2.90;;;;;;;;;;5035639;28;20213;-53
2023/04/02 07:51:23;;;;;;;5.20;3.10;;;;;;;;;;5035107;28;20201;-49
2023/04/02 07:53:54;;;;;;;3.80;2.47;;;;;;;;;;5034867;28;20211;-54
2023/04/02 07:56:23;;;;;;;3.53;2.70;;;;;;;;;;5035417;28;20196;-51
2023/04/02 07:58:50;;;;;;;3.77;2.43;;;;;;;;;;5017426;28;20311;-50
2023/04/02 08:01:24;;;;;;;3.57;2.10;;;;;;;;;;5034603;28;20561;-53
2023/04/02 08:03:56;;;;;;;3.73;2.20;;;;;;;;;;5033079;28;20208;-53
2023/04/02 08:06:24;;;;;;;2.97;2.20;;;;;;;;;;5033741;28;20254;-50
2023/04/02 08:08:51;;;;;;;3.57;2.03;;;;;;;;;;5035037;28;20565;-51
2023/04/02 08:11:19;;;;;;;3.27;2.17;;;;;;;;;;5028199;28;20658;-50
2023/04/02 08:13:46;;;;;;;3.37;2.47;;;;;;;;;;5019645;28;20217;-52
2023/04/02 08:16:14;;;;;;;3.73;2.50;;;;;;;;;;5015068;28;20206;-50
2023/04/02 08:18:41;;;;;;;4.20;2.77;;;;;;;;;;5014946;28;20245;-50
2023/04/02 08:21:09;;;;;;;3.57;2.63;;;;;;;;;;5014247;28;20666;-50
2023/04/02 08:23:37;;;;;;;5.30;2.83;;;;;;;;;;5014974;28;20255;-49
2023/04/02 08:26:05;;;;;;;4.93;3.00;;;;;;;;;;5014311;28;20229;-53
2023/04/02 08:28:32;;;;;;;4.60;2.80;;;;;;;;;;5014427;28;20209;-50
2023/04/02 08:31:00;;;;;;;5.87;3.57;;;;;;;;;;5014619;28;20550;-50
2023/04/02 08:33:28;;;;;;;7.13;3.37;;;;;;;;;;5014597;28;20237;-50
2023/04/02 08:35:55;;;;;;;6.03;3.60;;;;;;;;;;5014064;28;20263;-51
2023/04/02 08:38:22;;;;;;;6.27;3.27;;;;;;;;;;5013729;28;20717;-50
2023/04/02 08:40:55;;;;;;;6.57;3.63;;;;;;;;;;5014262;28;20201;-52
2023/04/02 08:43:37;;;;;;;4.47;2.90;;;;;;;;;;5028531;28;20258;-53
2023/04/02 08:46:20;;;;;;;6.47;3.53;;;;;;;;;;5029361;28;20200;-51
2023/04/02 08:48:55;;;;;;;4.10;3.00;;;;;;;;;;5013699;28;20650;-55
2023/04/02 08:51:25;;;;;;;7.67;3.37;;;;;;;;;;4996638;28;20268;-51
2023/04/02 08:53:55;;;;;;;4.27;2.83;;;;;;;;;;5014158;28;20213;-50
2023/04/02 08:56:31;;;;;;;5.23;3.23;;;;;;;;;;4996529;28;20205;-51
2023/04/02 08:59:02;;;;;;;3.97;2.77;;;;;;;;;;5014558;28;20235;-50
2023/04/02 09:01:36;;;;;;;6.13;3.00;;;;;;;;;;4996874;28;20205;-51
2023/04/02 09:04:08;;;;;;;3.60;2.20;;;;;;;;;;5038146;28;20276;-52
2023/04/02 09:06:36;;;;;;;4.77;2.77;;;;;;;;;;5008837;28;20229;-56
2023/04/02 09:09:03;;;;;;;3.90;2.80;;;;;;;;;;5028360;28;20728;-58
2023/04/02 09:11:42;;;;;;;2.70;2.03;;;;;;;;;;5030166;28;20712;-54
2023/04/02 09:14:16;;;;;;;4.30;2.40;;;;;;;;;;5031257;28;20221;-53
2023/04/02 09:16:48;;;;;;;4.73;2.70;;;;;;;;;;4997857;28;20223;-55
2023/04/02 09:19:20;;;;;;;5.57;3.23;;;;;;;;;;5030928;28;20241;-53
2023/04/02 09:22:02;;;;;;;4.03;2.57;;;;;;;;;;5028565;28;20224;-50
2023/04/02 09:24:29;;;;;;;4.03;2.53;;;;;;;;;;5044867;28;20701;-55
2023/04/02 09:26:57;;;;;;;5.63;2.50;;;;;;;;;;5030925;28;20216;-55
2023/04/02 09:29:31;;;;;;;4.70;2.90;;;;;;;;;;5031510;28;20220;-56
2023/04/02 09:32:11;;;;;;;4.70;2.60;;;;;;;;;;5031387;28;20688;-59
2023/04/02 09:34:38;;;;;;;4.30;2.50;;;;;;;;;;5031172;28;20220;-58
2023/04/02 09:37:14;;;;;;;3.77;2.47;;;;;;;;;;5030918;28;20216;-60
2023/04/02 09:39:41;;;;;;;3.27;2.13;;;;;;;;;;5031407;28;20559;-54
2023/04/02 09:42:29;;;;;;;2.63;2.23;;;;;;;;;;5013295;28;20716;-55
2023/04/02 09:45:13;;;;;;;3.27;2.30;;;;;;;;;;5029939;28;20267;-53
2023/04/02 09:47:41;;;;;;;3.57;2.17;;;;;;;;;;5030488;28;20702;-55
2023/04/02 09:50:20;;;;;;;2.93;2.03;;;;;;;;;;5013623;28;20212;-58
2023/04/02 09:52:49;;;;;;;3.63;1.73;;;;;;;;;;5032877;28;20231;-52
2023/04/02 09:55:26;;;;;;;3.20;1.97;;;;;;;;;;5035296;28;20303;-56
2023/04/02 09:58:12;;;;;;;3.33;2.00;;;;;;;;;;5026350;28;20229;-59
2023/04/02 10:00:48;;;;;;;2.33;1.50;;;;;;;;;;5022128;28;20221;-60
2023/04/02 10:03:24;;;;;;;2.57;1.77;;;;;;;;;;5035665;28;20224;-51
2023/04/02 10:06:12;;;;;;;3.73;2.27;;;;;;;;;;5035026;28;20697;-51
2023/04/02 10:08:42;;;;;;;2.97;2.07;;;;;;;;;;5032777;28;20747;-50
2023/04/02 10:11:12;;;;;;;3.30;2.07;;;;;;;;;;5034715;28;20307;-51
2023/04/02 10:13:52;;;;;;;2.70;1.67;;;;;;;;;;5034759;28;20228;-51
2023/04/02 10:16:31;;;;;;;4.07;2.50;;;;;;;;;;5034227;28;20584;-54
2023/04/02 10:19:29;;;;;;;2.87;2.13;;;;;;;;;;5050113;28;20236;-51
2023/04/02 10:21:57;;;;;;;4.00;2.30;;;;;;;;;;5035136;28;20311;-55
2023/04/02 10:24:27;;;;;;;5.87;2.97;;;;;;;;;;5034294;28;20567;-51
2023/04/02 10:27:29;;;;;;;3.20;2.10;;;;;;;;;;5035235;28;20228;-52
2023/04/02 10:30:19;;;;;;;6.30;3.50;;;;;;;;;;5000529;28;20229;-52
2023/04/02 10:33:06;;;;;;;4.90;2.77;;;;;;;;;;5002798;28;20228;-54
2023/04/02 10:35:53;;;;;;;3.83;2.17;;;;;;;;;;5002840;28;20229;-57
2023/04/02 10:38:43;;;;;;;3.43;2.17;;;;;;;;;;5003072;28;20291;-57
2023/04/02 10:41:31;;;;;;;2.30;2.00;;;;;;;;;;5002433;28;20222;-53
2023/04/02 10:44:30;;;;;;;2.27;1.57;;;;;;;;;;5003314;28;20585;-59
2023/04/02 10:47:21;;;;;;;4.73;2.73;;;;;;;;;;4907040;29;20276;-59
2023/04/02 10:50:16;;;;;;;4.87;2.40;;;;;;;;;;4888532;29;20222;-58
2023/04/02 10:53:12;;;;;;;2.50;1.40;;;;;;;;;;4902732;29;20715;-55
2023/04/02 10:55:54;;;;;;;2.40;1.47;;;;;;;;;;4904083;29;20559;-51
2023/04/02 10:58:26;;;;;;;3.10;1.97;;;;;;;;;;4906725;29;20233;-57
2023/04/02 11:01:12;;;;;;;1.77;1.50;;;;;;;;;;4906147;29;20229;-55
2023/04/02 11:03:47;;;;;;;1.77;1.30;;;;;;;;;;4906734;29;20228;-56
2023/04/02 11:06:18;;;;;;;4.40;2.23;;;;;;;;;;4922791;29;20231;-56
2023/04/02 11:08:48;;;;;;;6.70;3.15;;;;;;;;;;4925199;29;20231;-58
2023/04/02 11:11:18;;;;;;;2.13;1.63;;;;;;;;;;4903411;29;20221;-53
2023/04/02 11:14:02;;;;;;;3.37;2.30;;;;;;;;;;4922739;29;20232;-56
2023/04/02 11:16:29;;;;;;;2.47;1.50;;;;;;;;;;4925423;29;20224;-52
2023/04/02 11:19:15;;;;;;;2.00;1.23;;;;;;;;;;4924150;29;20240;-56
2023/04/02 11:21:55;;;;;;;2.10;1.30;;;;;;;;;;4925420;29;20224;-55
2023/04/02 11:24:32;;;;;;;1.48;1.38;;;;;;;;;;5027111;28;20228;-51
2023/04/02 11:27:02;;;;;;;1.40;1.23;;;;;;;;;;5033776;28;20216;-52
2023/04/02 11:29:30;;;;;;;2.03;1.27;;;;;;;;;;5032079;28;20315;-51
2023/04/02 11:32:28;;;;;;;1.20;0.90;;;;;;;;;;5016110;28;20308;-56
2023/04/02 11:34:58;;;;;;;1.93;1.23;;;;;;;;;;5008540;28;20708;-60
2023/04/02 11:37:43;;;;;;;2.47;1.07;;;;;;;;;;5034549;28;20224;-57
2023/04/02 11:40:12;;;;;;;1.73;1.20;;;;;;;;;;5034376;28;20236;-51
2023/04/02 11:42:51;;;;;;;2.10;1.50;;;;;;;;;;5034446;28;20290;-55
2023/04/02 11:45:19;;;;;;;1.90;1.47;;;;;;;;;;5016952;28;20709;-56
2023/04/02 11:48:07;;;;;;;2.40;1.37;;;;;;;;;;5034803;28;20221;-54
2023/04/02 11:50:41;;;;;;;1.60;1.27;;;;;;;;;;5034041;28;20232;-52
2023/04/02 11:53:11;;;;;;;2.37;1.60;;;;;;;;;;5016990;28;20234;-51
2023/04/02 11:56:05;;;;;;;3.60;2.40;;;;;;;;;;5034234;28;20225;-53
2023/04/02 11:59:15;;;;;;;3.53;1.93;;;;;;;;;;5017992;28;20598;-56
2023/04/02 12:02:04;;;;;;;1.87;1.37;;;;;;;;;;4980060;28;20292;-53
2023/04/02 12:04:50;;;;;;;2.67;1.20;;;;;;;;;;5033699;28;20221;-57
2023/04/02 12:07:33;;;;;;;2.03;1.30;;;;;;;;;;5033239;28;20216;-51
2023/04/02 12:10:05;;;;;;;2.60;1.40;;;;;;;;;;5028668;28;20254;-53
2023/04/02 12:12:37;;;;;;;1.40;1.23;;;;;;;;;;5011508;28;20221;-55
2023/04/02 12:15:07;;;;;;;2.30;1.37;;;;;;;;;;5012891;28;20231;-48
2023/04/02 12:17:37;;;;;;;4.97;2.07;;;;;;;;;;5015962;28;20243;-51
2023/04/02 12:20:08;;;;;;;4.07;2.10;;;;;;;;;;5032770;28;20232;-58
2023/04/02 12:22:45;;;;;;;6.23;2.93;;;;;;;;;;5024335;28;20225;-51
2023/04/02 12:25:33;;;;;;;3.47;1.80;;;;;;;;;;5041666;28;20274;-54
2023/04/02 12:28:09;;;;;;;2.07;1.37;;;;;;;;;;5015299;28;20229;-59
2023/04/02 12:30:37;;;;;;;2.80;1.60;;;;;;;;;;5028938;28;20216;-57
2023/04/02 12:33:30;;;;;;;2.77;1.50;;;;;;;;;;5031709;28;20232;-50
2023/04/02 12:35:59;;;;;;;2.17;1.57;;;;;;;;;;5031235;28;20724;-53
2023/04/02 12:38:33;;;;;;;4.03;2.13;;;;;;;;;;5032105;28;20290;-53
2023/04/02 12:41:03;;;;;;;3.07;1.70;;;;;;;;;;5022582;28;20256;-61
2023/04/02 12:43:36;;;;;;;2.13;1.47;;;;;;;;;;5029828;28;20216;-51
2023/04/02 12:46:05;;;;;;;2.23;1.40;;;;;;;;;;5032608;28;20316;-53
2023/04/02 12:48:33;;;;;;;1.93;1.50;;;;;;;;;;5032657;28;20244;-55
2023/04/02 12:51:01;;;;;;;2.60;1.57;;;;;;;;;;5032336;28;20223;-53
2023/04/02 12:53:38;;;;;;;2.63;1.60;;;;;;;;;;5014805;28;20217;-53
2023/04/02 12:56:09;;;;;;;1.87;1.23;;;;;;;;;;5031710;28;20235;-51
2023/04/02 12:58:39;;;;;;;1.70;1.30;;;;;;;;;;5032781;28;20704;-55
2023/04/02 13:01:18;;;;;;;2.40;1.43;;;;;;;;;;5032015;28;20231;-54
2023/04/02 13:04:10;;;;;;;1.57;1.27;;;;;;;;;;5032300;28;20224;-55
2023/04/02 13:06:40;;;;;;;2.13;1.57;;;;;;;;;;5032644;28;20716;-55
2023/04/02 13:09:30;;;;;;;2.73;1.80;;;;;;;;;;5015765;28;20228;-54
2023/04/02 13:11:58;;;;;;;2.10;1.50;;;;;;;;;;5032758;28;20217;-57
2023/04/02 13:14:26;;;;;;;2.93;1.83;;;;;;;;;;5032984;28;20220;-55
2023/04/02 13:16:53;;;;;;;2.43;1.20;;;;;;;;;;5030474;28;20225;-51
2023/04/02 13:19:22;;;;;;;2.43;1.67;;;;;;;;;;5046296;28;20239;-54
2023/04/02 13:21:51;;;;;;;1.60;1.50;;;;;;;;;;5029060;28;20275;-56
2023/04/02 13:24:23;;;;;;;2.23;1.43;;;;;;;;;;5031364;28;20236;-58
2023/04/02 13:26:54;;;;;;;2.00;1.40;;;;;;;;;;5028943;28;20240;-56
2023/04/02 13:29:27;;;;;;;2.97;1.60;;;;;;;;;;5030725;28;20224;-56
2023/04/02 13:31:57;;;;;;;9.70;2.87;;;;;;;;;;5030889;28;20219;-58
2023/04/02 13:34:25;;;;;;;1.73;1.63;;;;;;;;;;5030014;28;20224;-56
2023/04/02 13:36:52;;;;;;;2.60;1.27;;;;;;;;;;5030985;28;20217;-54
2023/04/02 13:39:20;;;;;;;2.13;1.40;;;;;;;;;;5030810;28;20766;-57
2023/04/02 13:41:50;;;;;;;2.27;1.63;;;;;;;;;;5028327;28;20270;-50
2023/04/02 13:44:23;;;;;;;2.57;1.70;;;;;;;;;;5013942;28;20212;-51
2023/04/02 13:46:52;;;;;;;3.07;1.50;;;;;;;;;;5044090;28;20247;-59
2023/04/02 13:49:20;;;;;;;2.33;1.60;;;;;;;;;;5030940;28;20209;-56
2023/04/02 13:51:52;;;;;;;4.37;2.30;;;;;;;;;;5028261;28;20220;-56
2023/04/02 13:54:24;;;;;;;2.47;1.70;;;;;;;;;;5029858;28;20215;-54
2023/04/02 13:56:51;;;;;;;2.10;1.60;;;;;;;;;;5028719;28;20213;-58
2023/04/02 13:59:19;;;;;;;5.57;2.43;;;;;;;;;;5028483;28;20227;-55
2023/04/02 14:01:47;;;;;;;1.83;1.53;;;;;;;;;;5029607;28;20248;-63
2023/04/02 14:04:18;;;;;;;3.27;2.43;;;;;;;;;;5014358;28;20221;-56
2023/04/02 14:07:04;;;;;;;2.37;1.60;;;;;;;;;;5031967;28;20274;-54
2023/04/02 14:09:43;;;;;;;3.23;1.33;;;;;;;;;;5031195;28;20223;-49
2023/04/02 14:12:25;;;;;;;2.57;1.37;;;;;;;;;;5031092;28;20682;-50
2023/04/02 14:15:08;;;;;;;2.00;1.47;;;;;;;;;;5031469;28;20236;-49
2023/04/02 14:18:13;;;;;;;2.83;1.53;;;;;;;;;;5027444;28;20227;-58
2023/04/02 14:20:53;;;;;;;2.13;1.33;;;;;;;;;;4989026;28;20741;-54
2023/04/02 14:23:23;;;;;;;1.80;1.40;;;;;;;;;;5031189;28;20221;-60
2023/04/02 14:25:59;;;;;;;1.97;1.40;;;;;;;;;;5014822;28;20217;-61
2023/04/02 14:28:57;;;;;;;1.87;1.40;;;;;;;;;;5030154;28;20217;-59
2023/04/02 14:32:11;;;;;;;2.37;1.17;;;;;;;;;;5007623;28;20221;-58
2023/04/02 14:35:02;;;;;;;4.33;1.67;;;;;;;;;;5010743;28;20224;-56
2023/04/02 14:37:35;;;;;;;2.20;1.33;;;;;;;;;;5030740;28;20224;-58
2023/04/02 14:40:12;;;;;;;3.00;1.53;;;;;;;;;;5014840;28;20239;-56
2023/04/02 14:43:05;;;;;;;2.47;1.60;;;;;;;;;;5016941;28;20231;-55
2023/04/02 14:45:53;;;;;;;5.67;2.23;;;;;;;;;;5017421;28;20227;-54
2023/04/02 14:48:21;;;;;;;15.43;3.93;;;;;;;;;;5028323;28;20224;-55
2023/04/02 14:50:49;;;;;;;4.93;1.80;;;;;;;;;;5022937;28;20224;-55
2023/04/02 14:53:23;;;;;;;2.87;1.67;;;;;;;;;;5017009;28;20227;-54
2023/04/02 14:55:51;;;;;;;3.13;1.47;;;;;;;;;;5033555;28;20223;-55
2023/04/02 14:58:30;;;;;;;3.10;1.80;;;;;;;;;;5034651;28;20212;-54
2023/04/02 15:01:08;;;;;;;4.27;1.70;;;;;;;;;;5016045;28;20244;-55
2023/04/02 15:03:47;;;;;;;2.93;1.67;;;;;;;;;;5033122;28;20693;-56
2023/04/02 15:06:18;;;;;;;2.20;1.47;;;;;;;;;;5016699;28;20228;-55
2023/04/02 15:08:53;;;;;;;3.27;1.87;;;;;;;;;;5013350;28;20290;-55
2023/04/02 15:11:37;;;;;;;2.97;1.80;;;;;;;;;;5014797;28;20233;-56
2023/04/02 15:14:34;;;;;;;3.80;2.07;;;;;;;;;;5032971;28;20220;-52
2023/04/02 15:17:01;;;;;;;6.87;2.27;;;;;;;;;;5022354;28;20213;-54
2023/04/02 15:19:29;;;;;;;2.93;1.63;;;;;;;;;;5033024;28;20374;-57
2023/04/02 15:22:19;;;;;;;4.60;2.03;;;;;;;;;;5034257;28;20594;-59
2023/04/02 15:25:16;;;;;;;5.23;2.80;;;;;;;;;;5021102;28;20240;-61
2023/04/02 15:28:06;;;;;;;3.80;2.07;;;;;;;;;;4954238;29;20231;-62
2023/04/02 15:30:38;;;;;;;4.77;2.33;;;;;;;;;;4953848;29;20231;-56
2023/04/02 15:33:26;;;;;;;10.20;3.37;;;;;;;;;;4937951;29;20793;-51
2023/04/02 15:35:59;;;;;;;3.27;2.03;;;;;;;;;;4944365;29;20568;-54
2023/04/02 15:38:51;;;;;;;2.67;2.00;;;;;;;;;;4953877;29;20231;-50